Array ( [0] => 2015/03/31 00:00 [1] => LEIB 310000Z VRB02KT CAVOK 14/10 Q1023 NOSIG ) Sa Trinxa - Ibiza
picture

Partner

adSpot
Chicaria Records
Ibiza global radio
Ibiza Sonica
Partysan
Pioneer Pro DJ